sensor_id;sensor_type;location;lat;lon;timestamp;P1;durP1;ratioP1;P2;durP2;ratioP2
36445;SDS011;22472;50.848;-1.216;2023-05-24T00:02:25;6.82;;;2.65;;
36445;SDS011;22472;50.848;-1.216;2023-05-24T00:04:52;6.15;;;2.97;;
36445;SDS011;22472;50.848;-1.216;2023-05-24T00:07:20;8.13;;;3.15;;
36445;SDS011;22472;50.848;-1.216;2023-05-24T00:09:47;7.75;;;2.70;;
36445;SDS011;22472;50.848;-1.216;2023-05-24T00:12:14;6.85;;;2.33;;
36445;SDS011;22472;50.848;-1.216;2023-05-24T00:14:42;7.03;;;3.05;;
36445;SDS011;22472;50.848;-1.216;2023-05-24T00:17:09;7.38;;;3.17;;
36445;SDS011;22472;50.848;-1.216;2023-05-24T00:19:38;5.18;;;2.67;;
36445;SDS011;22472;50.848;-1.216;2023-05-24T00:22:05;6.22;;;3.13;;
36445;SDS011;22472;50.848;-1.216;2023-05-24T00:24:33;8.60;;;2.28;;
36445;SDS011;22472;50.848;-1.216;2023-05-24T00:27:00;7.95;;;3.55;;
36445;SDS011;22472;50.848;-1.216;2023-05-24T00:29:27;10.05;;;3.47;;
36445;SDS011;22472;50.848;-1.216;2023-05-24T00:31:55;7.28;;;3.17;;
36445;SDS011;22472;50.848;-1.216;2023-05-24T00:34:22;8.20;;;3.17;;
36445;SDS011;22472;50.848;-1.216;2023-05-24T00:36:51;6.68;;;2.35;;
36445;SDS011;22472;50.848;-1.216;2023-05-24T00:39:18;5.88;;;2.28;;
36445;SDS011;22472;50.848;-1.216;2023-05-24T00:41:45;6.07;;;2.30;;
36445;SDS011;22472;50.848;-1.216;2023-05-24T00:44:13;5.68;;;2.45;;
36445;SDS011;22472;50.848;-1.216;2023-05-24T00:46:40;5.70;;;2.70;;
36445;SDS011;22472;50.848;-1.216;2023-05-24T00:49:08;8.10;;;3.00;;
36445;SDS011;22472;50.848;-1.216;2023-05-24T00:51:36;6.97;;;2.60;;
36445;SDS011;22472;50.848;-1.216;2023-05-24T00:54:05;8.10;;;2.80;;
36445;SDS011;22472;50.848;-1.216;2023-05-24T00:56:32;7.30;;;3.35;;
36445;SDS011;22472;50.848;-1.216;2023-05-24T00:59:00;12.13;;;3.13;;
36445;SDS011;22472;50.848;-1.216;2023-05-24T01:01:27;6.32;;;2.75;;
36445;SDS011;22472;50.848;-1.216;2023-05-24T01:03:55;7.43;;;3.58;;
36445;SDS011;22472;50.848;-1.216;2023-05-24T01:06:23;10.95;;;4.55;;
36445;SDS011;22472;50.848;-1.216;2023-05-24T01:09:00;7.38;;;3.67;;
36445;SDS011;22472;50.848;-1.216;2023-05-24T01:11:32;8.27;;;4.18;;
36445;SDS011;22472;50.848;-1.216;2023-05-24T01:14:04;13.48;;;4.38;;
36445;SDS011;22472;50.848;-1.216;2023-05-24T01:16:35;9.18;;;3.72;;
36445;SDS011;22472;50.848;-1.216;2023-05-24T01:19:09;10.98;;;4.10;;
36445;SDS011;22472;50.848;-1.216;2023-05-24T01:21:42;7.13;;;3.45;;
36445;SDS011;22472;50.848;-1.216;2023-05-24T01:24:17;7.32;;;3.22;;
36445;SDS011;22472;50.848;-1.216;2023-05-24T01:26:54;8.13;;;3.40;;
36445;SDS011;22472;50.848;-1.216;2023-05-24T01:29:22;6.68;;;3.58;;
36445;SDS011;22472;50.848;-1.216;2023-05-24T01:31:49;8.93;;;4.40;;
36445;SDS011;22472;50.848;-1.216;2023-05-24T01:34:17;9.35;;;3.40;;
36445;SDS011;22472;50.848;-1.216;2023-05-24T01:36:44;6.00;;;3.35;;
36445;SDS011;22472;50.848;-1.216;2023-05-24T01:39:11;5.50;;;3.63;;
36445;SDS011;22472;50.848;-1.216;2023-05-24T01:41:40;10.00;;;4.18;;
36445;SDS011;22472;50.848;-1.216;2023-05-24T01:44:12;6.72;;;4.28;;
36445;SDS011;22472;50.848;-1.216;2023-05-24T01:46:41;6.35;;;2.88;;
36445;SDS011;22472;50.848;-1.216;2023-05-24T01:49:17;8.88;;;4.32;;
36445;SDS011;22472;50.848;-1.216;2023-05-24T01:51:47;5.97;;;3.10;;
36445;SDS011;22472;50.848;-1.216;2023-05-24T01:54:15;9.13;;;3.78;;
36445;SDS011;22472;50.848;-1.216;2023-05-24T01:56:45;9.47;;;4.47;;
36445;SDS011;22472;50.848;-1.216;2023-05-24T01:59:15;9.88;;;4.47;;
36445;SDS011;22472;50.848;-1.216;2023-05-24T02:04:20;8.25;;;4.15;;
36445;SDS011;22472;50.848;-1.216;2023-05-24T02:06:47;12.02;;;4.60;;
36445;SDS011;22472;50.848;-1.216;2023-05-24T02:09:14;6.97;;;3.50;;
36445;SDS011;22472;50.848;-1.216;2023-05-24T02:11:42;7.22;;;3.47;;
36445;SDS011;22472;50.848;-1.216;2023-05-24T02:14:09;9.10;;;4.20;;
36445;SDS011;22472;50.848;-1.216;2023-05-24T02:16:38;11.93;;;5.00;;
36445;SDS011;22472;50.848;-1.216;2023-05-24T02:19:10;14.68;;;5.40;;
36445;SDS011;22472;50.848;-1.216;2023-05-24T02:21:38;11.35;;;5.38;;
36445;SDS011;22472;50.848;-1.216;2023-05-24T02:24:06;13.27;;;6.40;;
36445;SDS011;22472;50.848;-1.216;2023-05-24T02:26:35;8.18;;;4.18;;
36445;SDS011;22472;50.848;-1.216;2023-05-24T02:29:03;12.10;;;5.90;;
36445;SDS011;22472;50.848;-1.216;2023-05-24T02:31:31;12.00;;;6.13;;
36445;SDS011;22472;50.848;-1.216;2023-05-24T02:33:59;8.57;;;4.97;;
36445;SDS011;22472;50.848;-1.216;2023-05-24T02:36:27;7.07;;;4.35;;
36445;SDS011;22472;50.848;-1.216;2023-05-24T02:38:56;9.95;;;5.30;;
36445;SDS011;22472;50.848;-1.216;2023-05-24T02:41:24;10.60;;;5.15;;
36445;SDS011;22472;50.848;-1.216;2023-05-24T02:43:51;9.38;;;4.97;;
36445;SDS011;22472;50.848;-1.216;2023-05-24T02:46:18;9.55;;;4.18;;
36445;SDS011;22472;50.848;-1.216;2023-05-24T02:48:46;12.38;;;5.68;;
36445;SDS011;22472;50.848;-1.216;2023-05-24T02:51:15;8.30;;;4.85;;
36445;SDS011;22472;50.848;-1.216;2023-05-24T02:53:42;12.70;;;5.35;;
36445;SDS011;22472;50.848;-1.216;2023-05-24T02:56:10;12.40;;;6.00;;
36445;SDS011;22472;50.848;-1.216;2023-05-24T02:58:41;12.93;;;5.93;;
36445;SDS011;22472;50.848;-1.216;2023-05-24T03:01:09;12.40;;;6.05;;
36445;SDS011;22472;50.848;-1.216;2023-05-24T03:03:37;10.88;;;5.80;;
36445;SDS011;22472;50.848;-1.216;2023-05-24T03:06:05;10.63;;;5.68;;
36445;SDS011;22472;50.848;-1.216;2023-05-24T03:08:34;13.73;;;6.53;;
36445;SDS011;22472;50.848;-1.216;2023-05-24T03:11:02;14.98;;;6.70;;
36445;SDS011;22472;50.848;-1.216;2023-05-24T03:13:29;14.98;;;6.70;;
36445;SDS011;22472;50.848;-1.216;2023-05-24T03:15:57;15.80;;;7.25;;
36445;SDS011;22472;50.848;-1.216;2023-05-24T03:18:24;11.93;;;6.20;;
36445;SDS011;22472;50.848;-1.216;2023-05-24T03:20:51;15.90;;;7.10;;
36445;SDS011;22472;50.848;-1.216;2023-05-24T03:23:19;13.48;;;7.03;;
36445;SDS011;22472;50.848;-1.216;2023-05-24T03:25:48;11.90;;;6.93;;
36445;SDS011;22472;50.848;-1.216;2023-05-24T03:28:15;18.40;;;7.43;;
36445;SDS011;22472;50.848;-1.216;2023-05-24T03:30:43;13.93;;;7.30;;
36445;SDS011;22472;50.848;-1.216;2023-05-24T03:33:10;11.57;;;7.03;;
36445;SDS011;22472;50.848;-1.216;2023-05-24T03:35:38;14.30;;;7.75;;
36445;SDS011;22472;50.848;-1.216;2023-05-24T03:38:05;12.93;;;7.07;;
36445;SDS011;22472;50.848;-1.216;2023-05-24T03:40:33;17.80;;;8.07;;
36445;SDS011;22472;50.848;-1.216;2023-05-24T03:43:02;18.25;;;7.70;;
36445;SDS011;22472;50.848;-1.216;2023-05-24T03:45:29;17.20;;;8.30;;
36445;SDS011;22472;50.848;-1.216;2023-05-24T03:47:57;16.55;;;7.88;;
36445;SDS011;22472;50.848;-1.216;2023-05-24T03:50:24;18.35;;;8.38;;
36445;SDS011;22472;50.848;-1.216;2023-05-24T03:52:51;16.80;;;7.65;;
36445;SDS011;22472;50.848;-1.216;2023-05-24T03:55:19;16.38;;;8.55;;
36445;SDS011;22472;50.848;-1.216;2023-05-24T03:57:46;19.73;;;8.23;;
36445;SDS011;22472;50.848;-1.216;2023-05-24T04:00:15;17.63;;;8.68;;
36445;SDS011;22472;50.848;-1.216;2023-05-24T04:02:43;16.35;;;8.32;;
36445;SDS011;22472;50.848;-1.216;2023-05-24T04:05:12;17.92;;;9.45;;
36445;SDS011;22472;50.848;-1.216;2023-05-24T04:07:39;17.38;;;9.13;;
36445;SDS011;22472;50.848;-1.216;2023-05-24T04:10:08;17.70;;;9.68;;
36445;SDS011;22472;50.848;-1.216;2023-05-24T04:12:35;18.13;;;8.70;;
36445;SDS011;22472;50.848;-1.216;2023-05-24T04:15:04;20.20;;;9.63;;
36445;SDS011;22472;50.848;-1.216;2023-05-24T04:17:33;19.33;;;10.18;;
36445;SDS011;22472;50.848;-1.216;2023-05-24T04:20:00;20.58;;;9.77;;
36445;SDS011;22472;50.848;-1.216;2023-05-24T04:22:29;19.98;;;9.80;;
36445;SDS011;22472;50.848;-1.216;2023-05-24T04:24:57;21.42;;;9.80;;
36445;SDS011;22472;50.848;-1.216;2023-05-24T04:27:24;21.40;;;9.80;;
36445;SDS011;22472;50.848;-1.216;2023-05-24T04:29:51;17.50;;;8.77;;
36445;SDS011;22472;50.848;-1.216;2023-05-24T04:32:19;17.75;;;8.90;;
36445;SDS011;22472;50.848;-1.216;2023-05-24T04:34:49;25.10;;;9.80;;
36445;SDS011;22472;50.848;-1.216;2023-05-24T04:37:16;16.05;;;9.18;;
36445;SDS011;22472;50.848;-1.216;2023-05-24T04:39:43;19.77;;;9.25;;
36445;SDS011;22472;50.848;-1.216;2023-05-24T04:42:11;16.67;;;8.52;;
36445;SDS011;22472;50.848;-1.216;2023-05-24T04:44:39;21.88;;;9.65;;
36445;SDS011;22472;50.848;-1.216;2023-05-24T04:47:06;17.80;;;9.65;;
36445;SDS011;22472;50.848;-1.216;2023-05-24T04:49:34;22.35;;;9.30;;
36445;SDS011;22472;50.848;-1.216;2023-05-24T04:52:03;22.10;;;9.40;;
36445;SDS011;22472;50.848;-1.216;2023-05-24T04:54:31;23.02;;;9.75;;
36445;SDS011;22472;50.848;-1.216;2023-05-24T04:56:59;20.83;;;9.45;;
36445;SDS011;22472;50.848;-1.216;2023-05-24T04:59:26;18.83;;;9.93;;
36445;SDS011;22472;50.848;-1.216;2023-05-24T05:01:54;19.83;;;9.70;;
36445;SDS011;22472;50.848;-1.216;2023-05-24T05:04:22;18.35;;;9.75;;
36445;SDS011;22472;50.848;-1.216;2023-05-24T05:06:49;21.20;;;8.95;;
36445;SDS011;22472;50.848;-1.216;2023-05-24T05:09:18;18.70;;;8.10;;
36445;SDS011;22472;50.848;-1.216;2023-05-24T05:11:46;18.40;;;9.10;;
36445;SDS011;22472;50.848;-1.216;2023-05-24T05:14:14;16.33;;;8.32;;
36445;SDS011;22472;50.848;-1.216;2023-05-24T05:16:41;20.65;;;8.57;;
36445;SDS011;22472;50.848;-1.216;2023-05-24T05:19:10;16.88;;;8.38;;
36445;SDS011;22472;50.848;-1.216;2023-05-24T05:21:37;18.70;;;8.10;;
36445;SDS011;22472;50.848;-1.216;2023-05-24T05:24:05;15.88;;;7.90;;
36445;SDS011;22472;50.848;-1.216;2023-05-24T05:26:34;14.73;;;7.28;;
36445;SDS011;22472;50.848;-1.216;2023-05-24T05:29:01;17.27;;;7.38;;
36445;SDS011;22472;50.848;-1.216;2023-05-24T05:31:28;15.50;;;7.10;;
36445;SDS011;22472;50.848;-1.216;2023-05-24T05:33:56;15.18;;;5.95;;
36445;SDS011;22472;50.848;-1.216;2023-05-24T05:36:23;19.02;;;6.80;;
36445;SDS011;22472;50.848;-1.216;2023-05-24T05:38:51;13.60;;;6.60;;
36445;SDS011;22472;50.848;-1.216;2023-05-24T05:41:18;12.68;;;6.15;;
36445;SDS011;22472;50.848;-1.216;2023-05-24T05:43:47;17.73;;;6.35;;
36445;SDS011;22472;50.848;-1.216;2023-05-24T05:46:15;13.45;;;5.85;;
36445;SDS011;22472;50.848;-1.216;2023-05-24T05:48:43;13.32;;;5.75;;
36445;SDS011;22472;50.848;-1.216;2023-05-24T05:51:11;13.57;;;5.28;;
36445;SDS011;22472;50.848;-1.216;2023-05-24T05:53:39;18.85;;;5.50;;
36445;SDS011;22472;50.848;-1.216;2023-05-24T05:56:06;13.02;;;5.13;;
36445;SDS011;22472;50.848;-1.216;2023-05-24T05:58:33;12.13;;;4.80;;
36445;SDS011;22472;50.848;-1.216;2023-05-24T06:01:04;10.93;;;4.50;;
36445;SDS011;22472;50.848;-1.216;2023-05-24T06:03:31;13.30;;;4.70;;
36445;SDS011;22472;50.848;-1.216;2023-05-24T06:05:59;12.50;;;4.30;;
36445;SDS011;22472;50.848;-1.216;2023-05-24T06:08:27;10.23;;;4.03;;
36445;SDS011;22472;50.848;-1.216;2023-05-24T06:10:59;15.30;;;4.50;;
36445;SDS011;22472;50.848;-1.216;2023-05-24T06:13:26;12.65;;;4.53;;
36445;SDS011;22472;50.848;-1.216;2023-05-24T06:15:55;11.55;;;4.05;;
36445;SDS011;22472;50.848;-1.216;2023-05-24T06:18:25;11.68;;;4.45;;
36445;SDS011;22472;50.848;-1.216;2023-05-24T06:20:54;8.75;;;4.10;;
36445;SDS011;22472;50.848;-1.216;2023-05-24T06:23:22;16.60;;;4.03;;
36445;SDS011;22472;50.848;-1.216;2023-05-24T06:25:49;12.52;;;4.40;;
36445;SDS011;22472;50.848;-1.216;2023-05-24T06:28:16;11.45;;;4.05;;
36445;SDS011;22472;50.848;-1.216;2023-05-24T06:30:45;13.10;;;4.05;;
36445;SDS011;22472;50.848;-1.216;2023-05-24T06:33:12;21.50;;;4.20;;
36445;SDS011;22472;50.848;-1.216;2023-05-24T06:35:41;12.85;;;3.80;;
36445;SDS011;22472;50.848;-1.216;2023-05-24T06:38:09;10.57;;;3.70;;
36445;SDS011;22472;50.848;-1.216;2023-05-24T06:40:36;9.20;;;3.88;;
36445;SDS011;22472;50.848;-1.216;2023-05-24T06:43:03;11.38;;;3.90;;
36445;SDS011;22472;50.848;-1.216;2023-05-24T06:45:31;14.77;;;4.20;;
36445;SDS011;22472;50.848;-1.216;2023-05-24T06:47:58;14.73;;;4.00;;
36445;SDS011;22472;50.848;-1.216;2023-05-24T06:50:26;16.80;;;4.15;;
36445;SDS011;22472;50.848;-1.216;2023-05-24T06:52:55;12.82;;;4.05;;
36445;SDS011;22472;50.848;-1.216;2023-05-24T06:55:22;15.02;;;4.35;;
36445;SDS011;22472;50.848;-1.216;2023-05-24T06:57:49;10.90;;;4.15;;
36445;SDS011;22472;50.848;-1.216;2023-05-24T07:00:17;13.48;;;3.97;;
36445;SDS011;22472;50.848;-1.216;2023-05-24T07:02:45;12.07;;;3.78;;
36445;SDS011;22472;50.848;-1.216;2023-05-24T07:05:13;11.70;;;3.92;;
36445;SDS011;22472;50.848;-1.216;2023-05-24T07:07:40;14.18;;;4.00;;
36445;SDS011;22472;50.848;-1.216;2023-05-24T07:10:10;14.45;;;3.90;;
36445;SDS011;22472;50.848;-1.216;2023-05-24T07:12:37;13.23;;;3.25;;
36445;SDS011;22472;50.848;-1.216;2023-05-24T07:15:06;12.52;;;3.10;;
36445;SDS011;22472;50.848;-1.216;2023-05-24T07:17:34;12.48;;;3.10;;
36445;SDS011;22472;50.848;-1.216;2023-05-24T07:20:01;13.25;;;3.08;;
36445;SDS011;22472;50.848;-1.216;2023-05-24T07:24:59;9.48;;;2.83;;
36445;SDS011;22472;50.848;-1.216;2023-05-24T07:27:28;15.68;;;3.17;;
36445;SDS011;22472;50.848;-1.216;2023-05-24T07:29:55;12.65;;;2.88;;
36445;SDS011;22472;50.848;-1.216;2023-05-24T07:32:23;10.20;;;2.95;;
36445;SDS011;22472;50.848;-1.216;2023-05-24T07:34:50;11.85;;;2.70;;
36445;SDS011;22472;50.848;-1.216;2023-05-24T07:37:18;11.30;;;2.95;;
36445;SDS011;22472;50.848;-1.216;2023-05-24T07:39:48;9.20;;;2.63;;
36445;SDS011;22472;50.848;-1.216;2023-05-24T07:42:16;13.60;;;2.92;;
36445;SDS011;22472;50.848;-1.216;2023-05-24T07:44:45;13.57;;;2.97;;
36445;SDS011;22472;50.848;-1.216;2023-05-24T07:47:12;12.20;;;2.67;;
36445;SDS011;22472;50.848;-1.216;2023-05-24T07:49:40;11.27;;;2.65;;
36445;SDS011;22472;50.848;-1.216;2023-05-24T07:52:07;11.43;;;2.70;;
36445;SDS011;22472;50.848;-1.216;2023-05-24T07:54:34;8.90;;;2.70;;
36445;SDS011;22472;50.848;-1.216;2023-05-24T07:57:02;11.60;;;2.72;;
36445;SDS011;22472;50.848;-1.216;2023-05-24T07:59:30;18.13;;;3.20;;
36445;SDS011;22472;50.848;-1.216;2023-05-24T08:01:59;14.48;;;3.03;;
36445;SDS011;22472;50.848;-1.216;2023-05-24T08:04:29;9.57;;;2.58;;
36445;SDS011;22472;50.848;-1.216;2023-05-24T08:06:57;11.68;;;2.72;;
36445;SDS011;22472;50.848;-1.216;2023-05-24T08:09:26;12.77;;;2.78;;
36445;SDS011;22472;50.848;-1.216;2023-05-24T08:11:54;11.38;;;2.95;;
36445;SDS011;22472;50.848;-1.216;2023-05-24T08:14:22;8.93;;;2.88;;
36445;SDS011;22472;50.848;-1.216;2023-05-24T08:16:49;12.70;;;3.00;;
36445;SDS011;22472;50.848;-1.216;2023-05-24T08:19:18;11.60;;;2.90;;
36445;SDS011;22472;50.848;-1.216;2023-05-24T08:21:45;11.30;;;2.97;;
36445;SDS011;22472;50.848;-1.216;2023-05-24T08:24:13;9.90;;;2.60;;
36445;SDS011;22472;50.848;-1.216;2023-05-24T08:26:40;8.80;;;2.50;;
36445;SDS011;22472;50.848;-1.216;2023-05-24T08:29:09;13.27;;;2.78;;
36445;SDS011;22472;50.848;-1.216;2023-05-24T08:31:37;11.68;;;3.10;;
36445;SDS011;22472;50.848;-1.216;2023-05-24T08:34:04;11.93;;;2.60;;
36445;SDS011;22472;50.848;-1.216;2023-05-24T08:36:33;14.32;;;3.17;;
36445;SDS011;22472;50.848;-1.216;2023-05-24T08:39:01;11.20;;;3.08;;
36445;SDS011;22472;50.848;-1.216;2023-05-24T08:41:29;12.35;;;2.70;;
36445;SDS011;22472;50.848;-1.216;2023-05-24T08:44:01;16.00;;;2.90;;
36445;SDS011;22472;50.848;-1.216;2023-05-24T08:46:31;9.30;;;2.65;;
36445;SDS011;22472;50.848;-1.216;2023-05-24T08:49:00;10.43;;;2.60;;
36445;SDS011;22472;50.848;-1.216;2023-05-24T08:51:28;10.48;;;2.58;;
36445;SDS011;22472;50.848;-1.216;2023-05-24T08:53:57;11.07;;;3.00;;
36445;SDS011;22472;50.848;-1.216;2023-05-24T08:56:26;10.90;;;2.80;;
36445;SDS011;22472;50.848;-1.216;2023-05-24T08:58:54;9.20;;;2.65;;
36445;SDS011;22472;50.848;-1.216;2023-05-24T09:01:21;14.63;;;3.22;;
36445;SDS011;22472;50.848;-1.216;2023-05-24T09:03:50;13.88;;;2.72;;
36445;SDS011;22472;50.848;-1.216;2023-05-24T09:06:17;10.07;;;2.85;;
36445;SDS011;22472;50.848;-1.216;2023-05-24T09:08:45;10.32;;;2.63;;
36445;SDS011;22472;50.848;-1.216;2023-05-24T09:11:18;10.57;;;2.65;;
36445;SDS011;22472;50.848;-1.216;2023-05-24T09:13:47;10.77;;;2.75;;
36445;SDS011;22472;50.848;-1.216;2023-05-24T09:16:14;8.80;;;2.60;;
36445;SDS011;22472;50.848;-1.216;2023-05-24T09:18:42;8.63;;;2.50;;
36445;SDS011;22472;50.848;-1.216;2023-05-24T09:21:09;13.02;;;3.08;;
36445;SDS011;22472;50.848;-1.216;2023-05-24T09:23:37;11.93;;;3.05;;
36445;SDS011;22472;50.848;-1.216;2023-05-24T09:26:08;10.10;;;2.35;;
36445;SDS011;22472;50.848;-1.216;2023-05-24T09:28:37;11.48;;;2.72;;
36445;SDS011;22472;50.848;-1.216;2023-05-24T09:31:05;12.20;;;2.67;;
36445;SDS011;22472;50.848;-1.216;2023-05-24T09:33:33;9.82;;;2.40;;
36445;SDS011;22472;50.848;-1.216;2023-05-24T09:36:01;9.85;;;2.70;;
36445;SDS011;22472;50.848;-1.216;2023-05-24T09:38:29;6.78;;;2.22;;
36445;SDS011;22472;50.848;-1.216;2023-05-24T09:40:57;11.68;;;2.97;;
36445;SDS011;22472;50.848;-1.216;2023-05-24T09:43:25;8.32;;;2.60;;
36445;SDS011;22472;50.848;-1.216;2023-05-24T09:45:55;10.02;;;3.10;;
36445;SDS011;22472;50.848;-1.216;2023-05-24T09:48:24;9.13;;;2.97;;
36445;SDS011;22472;50.848;-1.216;2023-05-24T09:50:59;11.93;;;3.20;;
36445;SDS011;22472;50.848;-1.216;2023-05-24T09:53:26;7.78;;;2.63;;
36445;SDS011;22472;50.848;-1.216;2023-05-24T09:55:54;10.40;;;2.83;;
36445;SDS011;22472;50.848;-1.216;2023-05-24T09:58:21;9.82;;;2.88;;
36445;SDS011;22472;50.848;-1.216;2023-05-24T10:00:48;13.18;;;2.83;;
36445;SDS011;22472;50.848;-1.216;2023-05-24T10:03:17;13.98;;;3.13;;
36445;SDS011;22472;50.848;-1.216;2023-05-24T10:05:44;8.07;;;2.60;;
36445;SDS011;22472;50.848;-1.216;2023-05-24T10:08:12;9.75;;;2.78;;
36445;SDS011;22472;50.848;-1.216;2023-05-24T10:10:39;11.35;;;2.88;;
36445;SDS011;22472;50.848;-1.216;2023-05-24T10:13:08;6.55;;;2.70;;
36445;SDS011;22472;50.848;-1.216;2023-05-24T10:15:36;7.78;;;2.40;;
36445;SDS011;22472;50.848;-1.216;2023-05-24T10:18:04;8.65;;;2.35;;
36445;SDS011;22472;50.848;-1.216;2023-05-24T10:20:34;5.78;;;2.30;;
36445;SDS011;22472;50.848;-1.216;2023-05-24T10:23:03;4.43;;;1.77;;
36445;SDS011;22472;50.848;-1.216;2023-05-24T10:25:31;7.50;;;2.30;;
36445;SDS011;22472;50.848;-1.216;2023-05-24T10:28:00;8.73;;;2.33;;
36445;SDS011;22472;50.848;-1.216;2023-05-24T10:30:28;6.55;;;2.05;;
36445;SDS011;22472;50.848;-1.216;2023-05-24T10:32:58;7.50;;;2.17;;
36445;SDS011;22472;50.848;-1.216;2023-05-24T10:35:25;7.57;;;2.70;;
36445;SDS011;22472;50.848;-1.216;2023-05-24T10:37:55;8.25;;;2.60;;
36445;SDS011;22472;50.848;-1.216;2023-05-24T10:40:22;5.00;;;1.90;;
36445;SDS011;22472;50.848;-1.216;2023-05-24T10:42:50;7.32;;;2.50;;
36445;SDS011;22472;50.848;-1.216;2023-05-24T10:45:31;7.00;;;2.42;;
36445;SDS011;22472;50.848;-1.216;2023-05-24T10:50:42;8.07;;;2.67;;
36445;SDS011;22472;50.848;-1.216;2023-05-24T10:53:11;6.53;;;2.33;;
36445;SDS011;22472;50.848;-1.216;2023-05-24T10:55:51;7.15;;;2.60;;
36445;SDS011;22472;50.848;-1.216;2023-05-24T10:58:19;8.65;;;2.67;;
36445;SDS011;22472;50.848;-1.216;2023-05-24T11:00:46;8.10;;;2.60;;
36445;SDS011;22472;50.848;-1.216;2023-05-24T11:03:17;7.03;;;2.95;;
36445;SDS011;22472;50.848;-1.216;2023-05-24T11:05:50;6.63;;;2.60;;
36445;SDS011;22472;50.848;-1.216;2023-05-24T11:08:28;8.95;;;2.70;;
36445;SDS011;22472;50.848;-1.216;2023-05-24T11:11:05;8.68;;;3.17;;
36445;SDS011;22472;50.848;-1.216;2023-05-24T11:13:34;8.50;;;2.83;;
36445;SDS011;22472;50.848;-1.216;2023-05-24T11:16:02;7.85;;;2.75;;
36445;SDS011;22472;50.848;-1.216;2023-05-24T11:18:30;6.25;;;2.42;;
36445;SDS011;22472;50.848;-1.216;2023-05-24T11:20:58;10.65;;;3.17;;
36445;SDS011;22472;50.848;-1.216;2023-05-24T11:23:29;6.43;;;2.50;;
36445;SDS011;22472;50.848;-1.216;2023-05-24T11:25:57;7.05;;;2.35;;
36445;SDS011;22472;50.848;-1.216;2023-05-24T11:28:24;10.63;;;2.80;;
36445;SDS011;22472;50.848;-1.216;2023-05-24T11:30:51;8.02;;;2.90;;
36445;SDS011;22472;50.848;-1.216;2023-05-24T11:33:19;6.07;;;2.67;;
36445;SDS011;22472;50.848;-1.216;2023-05-24T11:35:47;9.23;;;2.88;;
36445;SDS011;22472;50.848;-1.216;2023-05-24T11:38:16;7.43;;;2.85;;
36445;SDS011;22472;50.848;-1.216;2023-05-24T11:40:47;8.80;;;3.28;;
36445;SDS011;22472;50.848;-1.216;2023-05-24T11:43:15;7.85;;;2.60;;
36445;SDS011;22472;50.848;-1.216;2023-05-24T11:45:43;7.15;;;2.67;;
36445;SDS011;22472;50.848;-1.216;2023-05-24T11:48:12;6.63;;;3.05;;
36445;SDS011;22472;50.848;-1.216;2023-05-24T11:50:40;7.05;;;2.55;;
36445;SDS011;22472;50.848;-1.216;2023-05-24T11:53:08;7.85;;;2.80;;
36445;SDS011;22472;50.848;-1.216;2023-05-24T11:55:36;5.50;;;2.63;;
36445;SDS011;22472;50.848;-1.216;2023-05-24T11:58:09;10.27;;;3.22;;
36445;SDS011;22472;50.848;-1.216;2023-05-24T12:00:37;8.52;;;2.92;;
36445;SDS011;22472;50.848;-1.216;2023-05-24T12:03:04;6.35;;;2.70;;
36445;SDS011;22472;50.848;-1.216;2023-05-24T12:05:33;9.15;;;3.03;;
36445;SDS011;22472;50.848;-1.216;2023-05-24T12:08:02;8.63;;;3.50;;
36445;SDS011;22472;50.848;-1.216;2023-05-24T12:10:30;8.45;;;2.70;;
36445;SDS011;22472;50.848;-1.216;2023-05-24T12:12:58;9.15;;;3.45;;
36445;SDS011;22472;50.848;-1.216;2023-05-24T12:15:27;8.93;;;3.15;;
36445;SDS011;22472;50.848;-1.216;2023-05-24T12:17:54;9.60;;;3.10;;
36445;SDS011;22472;50.848;-1.216;2023-05-24T12:20:22;8.25;;;2.72;;
36445;SDS011;22472;50.848;-1.216;2023-05-24T12:22:50;7.03;;;3.28;;
36445;SDS011;22472;50.848;-1.216;2023-05-24T12:25:18;7.70;;;3.08;;
36445;SDS011;22472;50.848;-1.216;2023-05-24T12:27:46;7.20;;;2.75;;
36445;SDS011;22472;50.848;-1.216;2023-05-24T12:30:14;6.88;;;2.85;;
36445;SDS011;22472;50.848;-1.216;2023-05-24T12:32:47;8.55;;;2.92;;
36445;SDS011;22472;50.848;-1.216;2023-05-24T12:35:15;7.25;;;3.03;;
36445;SDS011;22472;50.848;-1.216;2023-05-24T12:37:43;7.80;;;2.92;;
36445;SDS011;22472;50.848;-1.216;2023-05-24T12:40:14;10.23;;;3.10;;
36445;SDS011;22472;50.848;-1.216;2023-05-24T12:42:44;8.48;;;3.33;;
36445;SDS011;22472;50.848;-1.216;2023-05-24T12:45:14;8.60;;;3.22;;
36445;SDS011;22472;50.848;-1.216;2023-05-24T12:47:48;9.48;;;3.08;;
36445;SDS011;22472;50.848;-1.216;2023-05-24T12:50:16;6.68;;;3.28;;
36445;SDS011;22472;50.848;-1.216;2023-05-24T12:52:44;9.10;;;3.47;;
36445;SDS011;22472;50.848;-1.216;2023-05-24T12:55:12;7.97;;;2.80;;
36445;SDS011;22472;50.848;-1.216;2023-05-24T12:57:39;8.55;;;3.10;;
36445;SDS011;22472;50.848;-1.216;2023-05-24T13:00:07;7.07;;;3.13;;
36445;SDS011;22472;50.848;-1.216;2023-05-24T13:02:35;7.07;;;3.08;;
36445;SDS011;22472;50.848;-1.216;2023-05-24T13:05:05;9.10;;;3.28;;
36445;SDS011;22472;50.848;-1.216;2023-05-24T13:07:33;8.70;;;3.10;;
36445;SDS011;22472;50.848;-1.216;2023-05-24T13:10:00;9.65;;;2.80;;
36445;SDS011;22472;50.848;-1.216;2023-05-24T13:12:27;6.38;;;2.75;;
36445;SDS011;22472;50.848;-1.216;2023-05-24T13:14:55;7.70;;;3.15;;
36445;SDS011;22472;50.848;-1.216;2023-05-24T13:17:22;7.43;;;2.97;;
36445;SDS011;22472;50.848;-1.216;2023-05-24T13:19:50;7.22;;;2.90;;
36445;SDS011;22472;50.848;-1.216;2023-05-24T13:22:19;6.38;;;2.83;;
36445;SDS011;22472;50.848;-1.216;2023-05-24T13:24:46;7.13;;;3.13;;
36445;SDS011;22472;50.848;-1.216;2023-05-24T13:27:14;8.05;;;3.00;;
36445;SDS011;22472;50.848;-1.216;2023-05-24T13:29:41;5.97;;;3.20;;
36445;SDS011;22472;50.848;-1.216;2023-05-24T13:32:08;9.27;;;3.08;;
36445;SDS011;22472;50.848;-1.216;2023-05-24T13:34:35;7.60;;;2.95;;
36445;SDS011;22472;50.848;-1.216;2023-05-24T13:37:03;6.65;;;3.25;;
36445;SDS011;22472;50.848;-1.216;2023-05-24T13:39:33;7.63;;;2.67;;
36445;SDS011;22472;50.848;-1.216;2023-05-24T13:42:01;7.13;;;3.00;;
36445;SDS011;22472;50.848;-1.216;2023-05-24T13:44:28;7.50;;;3.08;;
36445;SDS011;22472;50.848;-1.216;2023-05-24T13:46:56;5.90;;;2.72;;
36445;SDS011;22472;50.848;-1.216;2023-05-24T13:49:23;7.88;;;2.80;;
36445;SDS011;22472;50.848;-1.216;2023-05-24T13:51:51;9.25;;;3.42;;
36445;SDS011;22472;50.848;-1.216;2023-05-24T13:54:19;7.88;;;3.38;;
36445;SDS011;22472;50.848;-1.216;2023-05-24T13:56:48;7.95;;;3.20;;
36445;SDS011;22472;50.848;-1.216;2023-05-24T13:59:15;7.38;;;2.92;;
36445;SDS011;22472;50.848;-1.216;2023-05-24T14:01:43;6.30;;;2.88;;
36445;SDS011;22472;50.848;-1.216;2023-05-24T14:04:10;7.78;;;3.20;;
36445;SDS011;22472;50.848;-1.216;2023-05-24T14:06:37;7.18;;;3.05;;
36445;SDS011;22472;50.848;-1.216;2023-05-24T14:09:05;9.00;;;3.30;;
36445;SDS011;22472;50.848;-1.216;2023-05-24T14:11:32;9.15;;;3.00;;
36445;SDS011;22472;50.848;-1.216;2023-05-24T14:14:01;7.70;;;3.00;;
36445;SDS011;22472;50.848;-1.216;2023-05-24T14:16:28;6.28;;;2.53;;
36445;SDS011;22472;50.848;-1.216;2023-05-24T14:18:56;7.03;;;2.90;;
36445;SDS011;22472;50.848;-1.216;2023-05-24T14:21:23;5.95;;;3.05;;
36445;SDS011;22472;50.848;-1.216;2023-05-24T14:23:51;7.30;;;3.40;;
36445;SDS011;22472;50.848;-1.216;2023-05-24T14:26:18;6.57;;;3.10;;
36445;SDS011;22472;50.848;-1.216;2023-05-24T14:28:47;7.45;;;3.03;;
36445;SDS011;22472;50.848;-1.216;2023-05-24T14:31:16;7.25;;;2.90;;
36445;SDS011;22472;50.848;-1.216;2023-05-24T14:33:43;7.97;;;3.40;;
36445;SDS011;22472;50.848;-1.216;2023-05-24T14:36:11;7.35;;;3.15;;
36445;SDS011;22472;50.848;-1.216;2023-05-24T14:38:38;7.05;;;2.75;;
36445;SDS011;22472;50.848;-1.216;2023-05-24T14:41:05;7.63;;;2.92;;
36445;SDS011;22472;50.848;-1.216;2023-05-24T14:43:34;7.50;;;3.22;;